createdAt,value
2018-08-18T00:00:42.802Z,96.98
2018-08-18T00:01:42.795Z,96.94
2018-08-18T00:02:52.198Z,96.94
2018-08-18T00:03:42.776Z,97.49
2018-08-18T00:04:42.762Z,97.39
2018-08-18T00:05:50.708Z,97.29
2018-08-18T00:06:42.735Z,97.49
2018-08-18T00:07:42.764Z,97.29
2018-08-18T00:08:50.730Z,97.80
2018-08-18T00:09:42.702Z,97.29
2018-08-18T00:10:42.694Z,97.19
2018-08-18T00:11:50.260Z,97.80
2018-08-18T00:12:42.704Z,97.39
2018-08-18T00:13:42.667Z,97.39
2018-08-18T00:14:51.817Z,96.98
2018-08-18T00:15:42.638Z,97.08
2018-08-18T00:16:42.664Z,97.19
2018-08-18T00:17:50.344Z,97.19
2018-08-18T00:18:42.609Z,97.39
2018-08-18T00:19:42.643Z,97.60
2018-08-18T00:20:51.384Z,97.60
2018-08-18T00:21:42.578Z,97.49
2018-08-18T00:22:42.560Z,97.64
2018-08-18T00:23:42.562Z,97.60
2018-08-18T00:24:42.593Z,97.44
2018-08-18T00:25:42.566Z,97.49
2018-08-18T00:26:50.408Z,97.60
2018-08-18T00:27:42.508Z,97.13
2018-08-18T00:28:42.496Z,97.53
2018-08-18T00:29:42.480Z,97.08
2018-08-18T00:30:42.526Z,98.00
2018-08-18T00:31:42.470Z,97.19
2018-08-18T00:32:50.454Z,97.19
2018-08-18T00:33:42.454Z,97.69
2018-08-18T00:34:42.428Z,97.13
2018-08-18T00:35:51.514Z,97.64
2018-08-18T00:36:42.407Z,97.53
2018-08-18T00:37:42.440Z,97.49
2018-08-18T00:38:50.014Z,97.33
2018-08-18T00:39:42.371Z,96.37
2018-08-18T00:40:42.392Z,96.68
2018-08-18T00:41:42.332Z,97.08
2018-08-18T00:42:42.333Z,96.37
2018-08-18T00:43:42.345Z,96.17
2018-08-18T00:44:42.311Z,96.68
2018-08-18T00:45:42.310Z,97.08
2018-08-18T00:46:42.275Z,96.47
2018-08-18T00:47:51.559Z,96.58
2018-08-18T00:48:42.296Z,96.88
2018-08-18T00:49:42.247Z,96.68
2018-08-18T00:50:42.264Z,96.68
2018-08-18T00:51:42.224Z,96.72
2018-08-18T00:52:42.236Z,96.92
2018-08-18T00:53:50.071Z,96.83
2018-08-18T00:54:42.227Z,96.78
2018-08-18T00:55:42.187Z,96.92
2018-08-18T00:56:42.175Z,96.42
2018-08-18T00:57:42.207Z,96.58
2018-08-18T00:58:42.164Z,96.83
2018-08-18T00:59:50.109Z,96.78
2018-08-18T01:00:42.161Z,96.58
2018-08-18T01:01:42.117Z,96.27
2018-08-18T01:02:55.687Z,96.68
2018-08-18T01:03:42.099Z,96.78
2018-08-18T01:04:42.102Z,96.78
2018-08-18T01:05:49.705Z,96.68
2018-08-18T01:06:42.064Z,96.78
2018-08-18T01:07:42.086Z,96.27
2018-08-18T01:08:49.748Z,96.68
2018-08-18T01:09:42.028Z,96.58
2018-08-18T01:10:42.024Z,96.88
2018-08-18T01:11:42.205Z,96.58
2018-08-18T01:12:42.082Z,96.98
2018-08-18T01:13:42.033Z,96.47
2018-08-18T01:14:41.985Z,96.17
2018-08-18T01:15:42.042Z,96.37
2018-08-18T01:16:41.950Z,96.37
2018-08-18T01:17:41.974Z,95.97
2018-08-18T01:18:41.940Z,97.08
2018-08-18T01:19:41.955Z,96.68
2018-08-18T01:20:41.910Z,96.78
2018-08-18T01:21:41.903Z,96.68
2018-08-18T01:22:41.928Z,96.37
2018-08-18T01:23:51.302Z,96.68
2018-08-18T01:24:41.858Z,96.78
2018-08-18T01:25:41.852Z,96.78
2018-08-18T01:26:49.828Z,96.68
2018-08-18T01:27:41.819Z,97.39
2018-08-18T01:28:41.818Z,97.53
2018-08-18T01:29:51.872Z,97.94
2018-08-18T01:30:41.816Z,97.53
2018-08-18T01:31:41.773Z,97.23
2018-08-18T01:32:41.769Z,97.89
2018-08-18T01:33:41.762Z,97.13
2018-08-18T01:34:41.787Z,97.33
2018-08-18T01:35:41.739Z,97.39
2018-08-18T01:36:41.730Z,97.44
2018-08-18T01:37:41.719Z,97.60
2018-08-18T01:38:49.381Z,97.13
2018-08-18T01:39:41.713Z,97.44
2018-08-18T01:40:41.667Z,97.13
2018-08-18T01:41:50.939Z,97.74
2018-08-18T01:42:41.653Z,97.89
2018-08-18T01:43:41.651Z,97.84
2018-08-18T01:44:41.639Z,98.25
2018-08-18T01:45:41.622Z,97.64
2018-08-18T01:46:41.609Z,97.23
2018-08-18T01:47:50.983Z,97.08
2018-08-18T01:48:41.582Z,97.49
2018-08-18T01:49:41.577Z,97.39
2018-08-18T01:50:49.504Z,97.13
2018-08-18T01:51:41.589Z,97.33
2018-08-18T01:52:41.576Z,97.60
2018-08-18T01:53:41.550Z,97.08
2018-08-18T01:54:41.516Z,98.05
2018-08-18T01:55:41.514Z,97.44
2018-08-18T01:56:49.034Z,97.13
2018-08-18T01:57:41.517Z,97.39
2018-08-18T01:58:41.485Z,97.89
2018-08-18T01:59:49.062Z,97.39
2018-08-18T02:00:41.482Z,97.29
2018-08-18T02:01:41.442Z,97.33
2018-08-18T02:02:50.623Z,97.60
2018-08-18T02:03:41.422Z,97.64
2018-08-18T02:04:41.412Z,97.64
2018-08-18T02:05:49.120Z,97.23
2018-08-18T02:06:41.386Z,98.25
2018-08-18T02:07:41.412Z,98.25
2018-08-18T02:08:49.664Z,98.25
2018-08-18T02:09:41.354Z,98.05
2018-08-18T02:10:41.354Z,97.94
2018-08-18T02:11:49.190Z,98.05
2018-08-18T02:12:41.350Z,98.25
2018-08-18T02:13:41.298Z,98.14
2018-08-18T02:14:49.221Z,98.25
2018-08-18T02:15:41.290Z,98.14
2018-08-18T02:16:41.262Z,97.74
2018-08-18T02:17:50.765Z,98.14
2018-08-18T02:18:41.243Z,97.53
2018-08-18T02:19:41.228Z,97.53
2018-08-18T02:20:48.788Z,98.25
2018-08-18T02:21:41.219Z,97.53
2018-08-18T02:22:41.240Z,97.53
2018-08-18T02:23:48.822Z,97.33
2018-08-18T02:24:41.192Z,97.13
2018-08-18T02:25:41.168Z,97.94
2018-08-18T02:26:49.854Z,97.64
2018-08-18T02:27:41.274Z,97.74
2018-08-18T02:28:41.130Z,97.84
2018-08-18T02:29:48.891Z,97.03
2018-08-18T02:30:41.104Z,97.33
2018-08-18T02:31:41.084Z,97.53
2018-08-18T02:32:49.446Z,97.44
2018-08-18T02:33:41.073Z,97.64
2018-08-18T02:34:41.052Z,97.13
2018-08-18T02:35:50.459Z,97.53
2018-08-18T02:36:41.041Z,97.44
2018-08-18T02:37:41.032Z,97.89
2018-08-18T02:38:48.980Z,98.19
2018-08-18T02:39:40.996Z,97.99
2018-08-18T02:40:41.018Z,97.89
2018-08-18T02:41:48.527Z,97.99
2018-08-18T02:42:40.973Z,97.99
2018-08-18T02:43:40.961Z,98.30
2018-08-18T02:44:48.549Z,97.99
2018-08-18T02:45:40.973Z,97.58
2018-08-18T02:46:40.919Z,97.89
2018-08-18T02:47:40.916Z,97.99
2018-08-18T02:48:40.898Z,97.89
2018-08-18T02:49:40.903Z,97.89
2018-08-18T02:50:40.929Z,97.78
2018-08-18T02:51:40.876Z,98.30
2018-08-18T02:52:40.871Z,97.78
2018-08-18T02:53:40.864Z,98.09
2018-08-18T02:54:40.872Z,98.19
2018-08-18T02:55:40.878Z,98.19
2018-08-18T02:56:48.594Z,98.19
2018-08-18T02:57:40.813Z,98.19
2018-08-18T02:58:40.794Z,98.09
2018-08-18T02:59:40.783Z,98.30
2018-08-18T03:00:40.816Z,97.78
2018-08-18T03:01:40.765Z,97.42
2018-08-18T03:02:48.634Z,97.17
2018-08-18T03:03:40.736Z,97.93
2018-08-18T03:04:40.728Z,98.03
2018-08-18T03:05:49.212Z,97.53
2018-08-18T03:06:40.707Z,97.22
2018-08-18T03:07:40.696Z,98.34
2018-08-18T03:08:40.677Z,98.34
2018-08-18T03:09:40.672Z,98.24
2018-08-18T03:10:40.699Z,98.14
2018-08-18T03:11:40.649Z,98.24
2018-08-18T03:12:40.672Z,97.67
2018-08-18T03:13:40.620Z,98.08
2018-08-18T03:14:48.206Z,97.93
2018-08-18T03:15:40.595Z,98.14
2018-08-18T03:16:40.609Z,98.03
2018-08-18T03:17:40.597Z,98.03
2018-08-18T03:18:40.558Z,97.83
2018-08-18T03:19:40.554Z,98.14
2018-08-18T03:20:40.543Z,97.83
2018-08-18T03:21:40.517Z,98.34
2018-08-18T03:22:40.549Z,97.83
2018-08-18T03:23:48.224Z,97.98
2018-08-18T03:24:40.491Z,98.18
2018-08-18T03:25:40.482Z,97.98
2018-08-18T03:26:40.461Z,98.08
2018-08-18T03:27:40.489Z,98.08
2018-08-18T03:28:40.437Z,98.39
2018-08-18T03:29:49.773Z,98.49
2018-08-18T03:30:40.424Z,98.59
2018-08-18T03:31:40.416Z,99.41
2018-08-18T03:32:40.397Z,99.04
2018-08-18T03:33:40.387Z,99.35
2018-08-18T03:34:40.393Z,98.74
2018-08-18T03:35:48.277Z,98.59
2018-08-18T03:36:40.351Z,98.79
2018-08-18T03:37:40.337Z,98.64
2018-08-18T03:38:48.330Z,98.94
2018-08-18T03:39:40.368Z,98.94
2018-08-18T03:40:40.312Z,98.94
2018-08-18T03:41:47.861Z,99.25
2018-08-18T03:42:40.292Z,99.15
2018-08-18T03:43:40.278Z,98.90
2018-08-18T03:44:49.427Z,99.04
2018-08-18T03:45:40.260Z,98.74
2018-08-18T03:46:40.244Z,99.04
2018-08-18T03:47:40.239Z,99.04
2018-08-18T03:48:40.224Z,99.30
2018-08-18T03:49:40.274Z,98.69
2018-08-18T03:50:40.206Z,98.49
2018-08-18T03:51:40.186Z,98.54
2018-08-18T03:52:40.185Z,98.64
2018-08-18T03:53:47.929Z,98.28
2018-08-18T03:54:40.190Z,98.28
2018-08-18T03:55:40.182Z,97.98
2018-08-18T03:56:48.020Z,97.78
2018-08-18T03:57:40.122Z,98.18
2018-08-18T03:58:40.112Z,98.13
2018-08-18T03:59:47.996Z,98.18
2018-08-18T04:00:40.120Z,97.16
2018-08-18T04:01:40.138Z,98.08
2018-08-18T04:02:40.055Z,97.98
2018-08-18T04:03:40.053Z,97.06
2018-08-18T04:04:40.028Z,97.16
2018-08-18T04:05:50.565Z,96.96
2018-08-18T04:06:40.019Z,97.16
2018-08-18T04:07:40.015Z,97.06
2018-08-18T04:08:39.985Z,97.37
2018-08-18T04:09:39.973Z,96.55
2018-08-18T04:10:39.997Z,96.45
2018-08-18T04:11:47.556Z,96.66
2018-08-18T04:12:39.971Z,97.06
2018-08-18T04:13:39.929Z,97.27
2018-08-18T04:14:48.586Z,96.66
2018-08-18T04:15:39.959Z,97.06
2018-08-18T04:16:39.891Z,96.66
2018-08-18T04:17:39.885Z,96.76
2018-08-18T04:18:39.873Z,96.55
2018-08-18T04:19:39.865Z,96.66
2018-08-18T04:20:49.135Z,96.66
2018-08-18T04:21:39.833Z,96.55
2018-08-18T04:22:39.836Z,96.86
2018-08-18T04:23:47.660Z,97.16
2018-08-18T04:24:39.810Z,96.35
2018-08-18T04:25:39.820Z,96.66
2018-08-18T04:26:49.228Z,96.76
2018-08-18T04:27:39.779Z,96.76
2018-08-18T04:28:39.766Z,96.45
2018-08-18T04:29:49.269Z,96.55
2018-08-18T04:30:39.787Z,96.66
2018-08-18T04:31:39.744Z,96.86
2018-08-18T04:32:47.270Z,96.66
2018-08-18T04:33:39.718Z,96.76
2018-08-18T04:34:39.701Z,96.71
2018-08-18T04:35:48.823Z,96.81
2018-08-18T04:36:39.675Z,96.10
2018-08-18T04:37:39.672Z,96.20
2018-08-18T04:38:47.334Z,96.20
2018-08-18T04:39:39.639Z,97.02
2018-08-18T04:40:39.659Z,97.02
2018-08-18T04:41:39.626Z,96.00
2018-08-18T04:42:39.614Z,96.56
2018-08-18T04:43:39.640Z,96.97
2018-08-18T04:44:39.588Z,96.15
2018-08-18T04:45:39.615Z,96.77
2018-08-18T04:46:39.565Z,96.06
2018-08-18T04:47:47.364Z,96.15
2018-08-18T04:48:39.543Z,95.70
2018-08-18T04:49:39.522Z,95.50
2018-08-18T04:50:39.644Z,95.50
2018-08-18T04:51:39.497Z,95.40
2018-08-18T04:52:39.492Z,95.09
2018-08-18T04:53:47.394Z,95.40
2018-08-18T04:54:39.463Z,95.46
2018-08-18T04:55:39.507Z,95.36
2018-08-18T04:56:47.463Z,94.74
2018-08-18T04:57:39.421Z,95.25
2018-08-18T04:58:39.419Z,94.50
2018-08-18T04:59:39.413Z,94.60
2018-08-18T05:00:39.433Z,94.70
2018-08-18T05:01:39.397Z,94.40
2018-08-18T05:02:47.503Z,94.09
2018-08-18T05:03:39.356Z,93.89
2018-08-18T05:04:39.352Z,94.09
2018-08-18T05:05:39.347Z,94.09
2018-08-18T05:06:39.364Z,94.45
2018-08-18T05:07:39.313Z,94.56
2018-08-18T05:08:46.998Z,94.35
2018-08-18T05:09:39.306Z,94.35
2018-08-18T05:10:39.284Z,94.05
2018-08-18T05:11:39.390Z,94.61
2018-08-18T05:12:39.266Z,93.80
2018-08-18T05:13:39.254Z,93.60
2018-08-18T05:14:39.249Z,92.79
2018-08-18T05:15:39.244Z,93.19
2018-08-18T05:16:39.284Z,93.29
2018-08-18T05:17:47.532Z,93.49
2018-08-18T05:18:39.194Z,92.99
2018-08-18T05:19:39.184Z,92.79
2018-08-18T05:20:47.056Z,93.19
2018-08-18T05:21:39.186Z,92.74
2018-08-18T05:22:39.182Z,92.74
2018-08-18T05:23:39.129Z,92.64
2018-08-18T05:24:39.118Z,91.42
2018-08-18T05:25:39.118Z,91.28
2018-08-18T05:26:39.113Z,91.22
2018-08-18T05:27:39.122Z,91.48
2018-08-18T05:28:39.118Z,91.28
2018-08-18T05:29:47.091Z,91.08
2018-08-18T05:30:39.059Z,90.67
2018-08-18T05:31:39.035Z,90.97
2018-08-18T05:32:46.631Z,90.97
2018-08-18T05:33:39.073Z,90.88
2018-08-18T05:34:39.025Z,90.36
2018-08-18T05:35:46.662Z,90.97
2018-08-18T05:36:39.090Z,90.26
2018-08-18T05:37:38.976Z,91.08
2018-08-18T05:38:39.002Z,90.32
2018-08-18T05:39:38.964Z,90.22
2018-08-18T05:40:38.946Z,89.81
2018-08-18T05:41:46.694Z,90.12
2018-08-18T05:42:38.928Z,90.32
2018-08-18T05:43:38.956Z,89.37
2018-08-18T05:44:38.902Z,89.81
2018-08-18T05:45:38.897Z,89.72
2018-08-18T05:46:38.880Z,89.72
2018-08-18T05:47:46.736Z,89.72
2018-08-18T05:48:38.886Z,88.76
2018-08-18T05:49:38.851Z,89.17
2018-08-18T05:50:46.772Z,89.41
2018-08-18T05:51:38.824Z,89.17
2018-08-18T05:52:38.818Z,89.17
2018-08-18T05:53:38.840Z,88.66
2018-08-18T05:54:38.790Z,89.37
2018-08-18T05:55:38.800Z,88.86
2018-08-18T05:56:38.756Z,88.46
2018-08-18T05:57:38.751Z,88.86
2018-08-18T05:58:38.743Z,88.56
2018-08-18T05:59:38.795Z,88.05
2018-08-18T06:00:38.763Z,87.51
2018-08-18T06:01:38.702Z,87.30
2018-08-18T06:02:46.289Z,87.10
2018-08-18T06:03:38.683Z,87.60
2018-08-18T06:04:38.664Z,86.76
2018-08-18T06:05:47.891Z,87.05
2018-08-18T06:06:38.640Z,85.44
2018-08-18T06:07:38.641Z,85.94
2018-08-18T06:08:38.615Z,85.84
2018-08-18T06:09:38.651Z,85.94
2018-08-18T06:10:38.609Z,86.15
2018-08-18T06:11:46.362Z,85.90
2018-08-18T06:12:38.609Z,85.39
2018-08-18T06:13:38.593Z,85.50
2018-08-18T06:14:46.403Z,85.39
2018-08-18T06:15:38.597Z,85.30
2018-08-18T06:16:38.529Z,85.10
2018-08-18T06:17:38.521Z,84.69
2018-08-18T06:18:38.551Z,84.55
2018-08-18T06:19:38.519Z,83.60
2018-08-18T06:20:38.502Z,82.65
2018-08-18T06:21:38.530Z,79.81
2018-08-18T06:22:38.476Z,77.04
2018-08-18T06:23:47.962Z,73.91
2018-08-18T06:24:38.452Z,70.73
2018-08-18T06:25:38.446Z,68.92
2018-08-18T06:26:45.992Z,67.38
2018-08-18T06:27:38.431Z,64.51
2018-08-18T06:28:38.447Z,64.48
2018-08-18T06:29:38.402Z,63.98
2018-08-18T06:30:38.396Z,62.22
2018-08-18T06:31:38.362Z,62.52
2018-08-18T06:34:05.242Z,60.33
2018-08-18T06:35:05.215Z,59.23
2018-08-18T06:36:14.511Z,58.84
2018-08-18T06:37:05.181Z,59.11
2018-08-18T06:38:05.170Z,57.78
2018-08-18T06:39:05.172Z,57.06
2018-08-18T06:40:05.180Z,55.83
2018-08-18T06:41:05.260Z,55.83
2018-08-18T06:42:13.017Z,54.64
2018-08-18T06:43:05.127Z,54.83
2018-08-18T06:44:05.106Z,55.96
2018-08-18T06:45:17.087Z,55.96
2018-08-18T06:46:05.101Z,56.03
2018-08-18T06:47:05.062Z,56.13
2018-08-18T06:48:12.597Z,54.71
2018-08-18T06:49:05.033Z,54.56
2018-08-18T06:50:05.027Z,53.83
2018-08-18T06:51:14.169Z,53.34
2018-08-18T06:52:05.001Z,52.74
2018-08-18T06:53:05.000Z,52.44
2018-08-18T06:54:17.736Z,52.24
2018-08-18T06:55:05.162Z,51.82
2018-08-18T06:56:05.019Z,51.52
2018-08-18T06:58:27.858Z,50.50
2018-08-18T07:00:40.631Z,49.78
2018-08-18T07:01:40.627Z,49.56
2018-08-18T07:04:03.435Z,48.10
2018-08-18T07:05:03.380Z,49.33
2018-08-18T07:06:16.735Z,49.80
2018-08-18T07:07:03.388Z,48.89
2018-08-18T07:08:03.352Z,47.28
2018-08-18T07:09:11.208Z,46.56
2018-08-18T07:10:03.324Z,46.26
2018-08-18T07:11:03.312Z,46.19
2018-08-18T07:12:03.340Z,46.70
2018-08-18T07:13:03.302Z,46.31
2018-08-18T07:14:03.269Z,45.61
2018-08-18T07:15:11.230Z,45.59
2018-08-18T07:16:03.248Z,46.78
2018-08-18T07:17:03.277Z,45.59
2018-08-18T07:18:12.267Z,45.47
2018-08-18T07:19:03.219Z,45.47
2018-08-18T07:20:03.195Z,44.63
2018-08-18T07:21:10.778Z,43.89
2018-08-18T07:22:03.182Z,43.08
2018-08-18T07:23:03.173Z,43.65
2018-08-18T07:24:12.332Z,42.46
2018-08-18T07:25:03.149Z,43.28
2018-08-18T07:26:03.148Z,43.20
2018-08-18T07:27:03.127Z,45.27
2018-08-18T07:28:03.149Z,46.19
2018-08-18T07:29:03.221Z,46.41
2018-08-18T07:30:03.087Z,47.34
2018-08-18T07:31:03.140Z,47.49
2018-08-18T07:32:03.082Z,49.63
2018-08-18T07:33:03.060Z,49.75
2018-08-18T07:34:03.056Z,50.17
2018-08-18T07:35:03.039Z,50.30
2018-08-18T07:36:03.078Z,51.32
2018-08-18T07:37:03.082Z,52.57
2018-08-18T07:38:03.016Z,53.69
2018-08-18T07:39:12.441Z,54.35
2018-08-18T07:40:02.984Z,54.24
2018-08-18T07:41:02.978Z,55.07
2018-08-18T07:42:03.013Z,56.27
2018-08-18T07:43:02.957Z,55.07
2018-08-18T07:44:02.986Z,54.67
2018-08-18T07:45:10.913Z,52.77
2018-08-18T07:46:02.918Z,52.87
2018-08-18T07:47:02.960Z,52.67
2018-08-18T07:48:10.511Z,51.52
2018-08-18T07:49:02.922Z,50.49
2018-08-18T07:50:02.880Z,48.57
2018-08-18T07:51:02.869Z,47.53
2018-08-18T07:52:02.920Z,46.41
2018-08-18T07:53:02.921Z,47.40
2018-08-18T07:54:11.460Z,47.33
2018-08-18T07:55:02.820Z,48.65
2018-08-18T07:56:02.810Z,49.52
2018-08-18T07:57:02.835Z,50.34
2018-08-18T07:58:02.791Z,51.46
2018-08-18T07:59:02.780Z,51.39
2018-08-18T08:00:02.903Z,52.69
2018-08-18T08:01:02.784Z,52.29
2018-08-18T08:02:02.741Z,52.69
2018-08-18T08:03:10.497Z,53.02
2018-08-18T08:04:02.710Z,52.42
2018-08-18T08:05:02.799Z,52.29
2018-08-18T08:06:02.718Z,52.17
2018-08-18T08:07:02.674Z,51.99
2018-08-18T08:08:02.664Z,52.39
2018-08-18T08:09:10.525Z,52.42
2018-08-18T08:10:02.646Z,52.12
2018-08-18T08:11:02.660Z,52.19
2018-08-18T08:12:02.657Z,53.02
2018-08-18T08:13:02.654Z,52.80
2018-08-18T08:14:02.648Z,53.02
2018-08-18T08:15:10.550Z,52.59
2018-08-18T08:16:02.578Z,50.59
2018-08-18T08:17:02.570Z,52.19
2018-08-18T08:18:02.594Z,51.69
2018-08-18T08:19:02.549Z,52.80
2018-08-18T08:20:02.543Z,53.07
2018-08-18T08:21:02.576Z,52.77
2018-08-18T08:22:02.524Z,50.96
2018-08-18T08:23:02.573Z,54.27
2018-08-18T08:24:10.087Z,52.77
2018-08-18T08:25:02.486Z,50.96
2018-08-18T08:26:02.491Z,50.16
2018-08-18T08:27:10.127Z,49.96
2018-08-18T08:28:02.450Z,48.46
2018-08-18T08:29:02.483Z,49.07
2018-08-18T08:30:10.157Z,49.39
2018-08-18T08:31:02.431Z,50.26
2018-08-18T08:32:02.406Z,49.96
2018-08-18T08:33:11.730Z,50.57
2018-08-18T08:34:02.390Z,50.04
2018-08-18T08:35:02.372Z,50.34
2018-08-18T08:36:11.253Z,49.04
2018-08-18T08:37:02.352Z,47.64
2018-08-18T08:38:02.344Z,47.74
2018-08-18T08:39:02.386Z,46.44
2018-08-18T08:40:02.319Z,47.44
2018-08-18T08:41:02.355Z,47.64
2018-08-18T08:42:10.276Z,47.74
2018-08-18T08:43:02.290Z,46.84
2018-08-18T08:44:02.278Z,47.64
2018-08-18T08:45:02.271Z,47.72
2018-08-18T08:46:02.308Z,46.80
2018-08-18T08:47:02.252Z,46.77
2018-08-18T08:48:02.259Z,46.50
2018-08-18T08:49:02.310Z,46.50
2018-08-18T08:50:02.278Z,47.09
2018-08-18T08:51:02.194Z,46.80
2018-08-18T08:52:02.375Z,48.29
2018-08-18T08:53:02.174Z,46.80
2018-08-18T08:54:02.364Z,46.89
2018-08-18T08:55:02.200Z,46.80
2018-08-18T08:56:02.155Z,45.39
2018-08-18T08:57:09.809Z,45.20
2018-08-18T08:58:02.109Z,46.89
2018-08-18T08:59:02.193Z,46.30
2018-08-18T09:00:02.102Z,46.59
2018-08-18T09:01:02.106Z,46.99
2018-08-18T09:02:02.179Z,48.60
2018-08-18T09:04:24.970Z,47.35
2018-08-18T09:05:24.874Z,46.85
2018-08-18T09:06:24.885Z,47.83
2018-08-18T09:07:24.860Z,46.65
2018-08-18T09:08:24.890Z,48.45
2018-08-18T09:09:24.916Z,46.83
2018-08-18T09:10:24.875Z,46.61
2018-08-18T09:11:24.854Z,44.99
2018-08-18T09:12:24.820Z,45.78
2018-08-18T09:13:24.788Z,45.89
2018-08-18T09:14:35.177Z,45.89
2018-08-18T09:15:24.768Z,45.90
2018-08-18T09:16:24.770Z,46.83
2018-08-18T09:17:24.800Z,47.13
2018-08-18T09:18:24.778Z,45.98
2018-08-18T09:19:24.731Z,43.93
2018-08-18T09:20:24.769Z,42.77
2018-08-18T09:21:24.714Z,41.42
2018-08-18T09:22:24.689Z,40.76
2018-08-18T09:23:24.718Z,38.34
2018-08-18T09:24:24.672Z,38.11
2018-08-18T09:25:24.737Z,40.01
2018-08-18T09:26:24.689Z,40.78
2018-08-18T09:27:24.670Z,41.08
2018-08-18T09:28:24.625Z,42.72
2018-08-18T09:29:24.618Z,40.05
2018-08-18T09:30:24.664Z,38.27
2018-08-18T09:31:24.618Z,36.71
2018-08-18T09:32:32.159Z,36.07
2018-08-18T09:33:24.570Z,34.66
2018-08-18T09:34:24.580Z,34.74
2018-08-18T09:35:24.565Z,33.86
2018-08-18T09:36:24.643Z,33.36
2018-08-18T09:37:24.521Z,32.87
2018-08-18T09:38:24.511Z,32.86
2018-08-18T09:39:24.502Z,32.86
2018-08-18T09:40:24.488Z,32.33
2018-08-18T09:41:24.509Z,31.82
2018-08-18T09:42:24.463Z,32.04
2018-08-18T09:43:24.454Z,32.84
2018-08-18T09:44:24.448Z,32.50
2018-08-18T09:45:24.473Z,31.58
2018-08-18T09:46:24.505Z,31.89
2018-08-18T09:47:24.426Z,30.46
2018-08-18T09:48:24.408Z,30.62
2018-08-18T09:49:24.489Z,29.84
2018-08-18T09:50:24.384Z,29.25
2018-08-18T09:51:24.423Z,29.74
2018-08-18T09:52:24.389Z,29.55
2018-08-18T09:53:24.377Z,29.35
2018-08-18T09:54:24.350Z,29.35
2018-08-18T09:55:24.350Z,30.36
2018-08-18T09:56:24.380Z,32.48
2018-08-18T09:57:24.357Z,31.07
2018-08-18T09:58:24.303Z,32.45
2018-08-18T09:59:24.414Z,31.92
2018-08-18T10:00:24.281Z,31.89
2018-08-18T10:01:24.277Z,31.09
2018-08-18T10:02:33.749Z,31.76
2018-08-18T10:03:24.468Z,30.16
2018-08-18T10:04:24.245Z,30.46
2018-08-18T10:05:24.247Z,29.46
2018-08-18T10:06:24.233Z,28.19
2018-08-18T10:07:24.216Z,28.59
2018-08-18T10:08:37.792Z,29.21
2018-08-18T10:09:24.199Z,30.30
2018-08-18T10:10:24.184Z,29.33
2018-08-18T10:11:31.806Z,30.36
2018-08-18T10:12:24.161Z,29.56
2018-08-18T10:13:24.212Z,29.25
2018-08-18T10:14:24.151Z,29.25
2018-08-18T10:15:24.192Z,27.98
2018-08-18T10:16:24.134Z,27.48
2018-08-18T10:17:31.833Z,27.76
2018-08-18T10:18:24.136Z,27.86
2018-08-18T10:19:24.092Z,27.58
2018-08-18T10:20:24.087Z,28.78
2018-08-18T10:21:24.106Z,28.18
2018-08-18T10:22:24.062Z,27.90
2018-08-18T10:23:24.054Z,28.65
2018-08-18T10:24:24.311Z,27.58
2018-08-18T10:25:24.053Z,27.80
2018-08-18T10:26:32.056Z,27.23
2018-08-18T10:27:24.137Z,29.24
2018-08-18T10:28:23.993Z,28.97
2018-08-18T10:29:32.452Z,29.85
2018-08-18T10:30:23.976Z,29.43
2018-08-18T10:31:23.976Z,30.12
2018-08-18T10:32:23.946Z,29.44
2018-08-18T10:33:23.985Z,30.32
2018-08-18T10:34:23.931Z,29.30
2018-08-18T10:35:23.968Z,28.11
2018-08-18T10:36:23.965Z,27.59
2018-08-18T10:37:23.910Z,26.15
2018-08-18T10:38:23.895Z,26.12
2018-08-18T10:39:23.881Z,26.86
2018-08-18T10:40:23.914Z,27.64
2018-08-18T10:41:31.423Z,27.63
2018-08-18T10:42:23.883Z,28.25
2018-08-18T10:43:23.850Z,28.61
2018-08-18T10:44:31.456Z,27.42
2018-08-18T10:45:23.819Z,27.20
2018-08-18T10:46:23.816Z,26.72
2018-08-18T10:47:23.845Z,27.45
2018-08-18T10:48:23.809Z,28.92
2018-08-18T10:49:23.795Z,28.30
2018-08-18T10:50:23.782Z,28.09
2018-08-18T10:51:23.772Z,28.06
2018-08-18T10:52:23.810Z,26.00
2018-08-18T10:53:23.756Z,26.78
2018-08-18T10:54:23.758Z,25.89
2018-08-18T10:55:23.739Z,26.09
2018-08-18T10:56:23.786Z,26.15
2018-08-18T10:57:23.770Z,25.76
2018-08-18T10:58:23.714Z,26.34
2018-08-18T10:59:23.700Z,26.03
2018-08-18T11:00:23.693Z,25.70
2018-08-18T11:01:23.705Z,27.39
2018-08-18T11:02:33.028Z,29.24
2018-08-18T11:03:23.649Z,32.08
2018-08-18T11:04:23.640Z,32.34
2018-08-18T11:05:31.517Z,31.18
2018-08-18T11:06:23.627Z,30.85
2018-08-18T11:07:23.645Z,30.71
2018-08-18T11:08:23.652Z,32.39
2018-08-18T11:09:23.591Z,33.64
2018-08-18T11:10:23.577Z,34.25
2018-08-18T11:11:23.569Z,32.00
2018-08-18T11:12:23.563Z,31.33
2018-08-18T11:13:23.610Z,29.33
2018-08-18T11:14:31.543Z,29.50
2018-08-18T11:15:23.595Z,31.32
2018-08-18T11:16:23.519Z,30.84
2018-08-18T11:17:23.508Z,32.28
2018-08-18T11:18:23.483Z,33.59
2018-08-18T11:19:23.477Z,31.09
2018-08-18T11:20:23.524Z,31.46
2018-08-18T11:21:23.456Z,32.69
2018-08-18T11:22:23.459Z,32.97
2018-08-18T11:23:23.448Z,31.92
2018-08-18T11:24:23.450Z,30.78
2018-08-18T11:25:23.463Z,29.21
2018-08-18T11:26:31.075Z,29.80
2018-08-18T11:27:23.399Z,30.30
2018-08-18T11:28:23.408Z,29.41
2018-08-18T11:29:32.113Z,30.90
2018-08-18T11:30:23.426Z,30.82
2018-08-18T11:31:23.356Z,30.94
2018-08-18T11:32:36.201Z,30.07
2018-08-18T11:33:23.342Z,30.68
2018-08-18T11:34:23.327Z,32.49
2018-08-18T11:35:23.360Z,33.29
2018-08-18T11:36:23.343Z,32.17
2018-08-18T11:37:23.522Z,30.14
2018-08-18T11:38:34.307Z,29.60
2018-08-18T11:39:23.283Z,30.49
2018-08-18T11:40:23.268Z,28.26
2018-08-18T11:41:23.297Z,28.92
2018-08-18T11:42:23.270Z,30.01
2018-08-18T11:43:23.260Z,28.61
2018-08-18T11:44:23.289Z,28.55
2018-08-18T11:45:23.226Z,27.17
2018-08-18T11:46:23.253Z,26.38
2018-08-18T11:47:23.194Z,27.62
2018-08-18T11:48:23.198Z,26.10
2018-08-18T11:49:23.194Z,26.09
2018-08-18T11:50:30.782Z,25.78
2018-08-18T11:51:23.227Z,25.63
2018-08-18T11:52:23.149Z,25.03
2018-08-18T11:53:28.000Z,25.31
2018-08-18T11:54:24.593Z,25.16
2018-08-18T11:55:23.112Z,27.55
2018-08-18T11:56:23.151Z,28.59
2018-08-18T11:57:23.149Z,30.05
2018-08-18T11:58:23.090Z,29.73
2018-08-18T11:59:23.074Z,28.82
2018-08-18T12:00:23.197Z,27.72
2018-08-18T12:01:23.094Z,27.09
2018-08-18T12:02:24.028Z,26.86
2018-08-18T12:03:23.053Z,26.17
2018-08-18T12:04:23.023Z,26.17
2018-08-18T12:05:23.003Z,26.38
2018-08-18T12:06:22.995Z,26.11
2018-08-18T12:07:23.015Z,28.20
2018-08-18T12:08:22.995Z,27.42
2018-08-18T12:09:22.974Z,26.71
2018-08-18T12:10:22.983Z,28.33
2018-08-18T12:11:31.308Z,28.83
2018-08-18T12:12:22.951Z,28.72
2018-08-18T12:13:22.981Z,28.13
2018-08-18T12:14:22.939Z,28.17
2018-08-18T12:15:22.924Z,28.59
2018-08-18T12:16:22.911Z,29.69
2018-08-18T12:17:22.905Z,28.25
2018-08-18T12:18:22.939Z,27.81
2018-08-18T12:19:22.883Z,26.70
2018-08-18T12:20:22.913Z,27.70
2018-08-18T12:21:22.865Z,26.72
2018-08-18T12:22:22.847Z,27.42
2018-08-18T12:23:32.378Z,26.81
2018-08-18T12:24:22.823Z,25.72
2018-08-18T12:25:22.828Z,27.75
2018-08-18T12:26:22.811Z,28.64
2018-08-18T12:27:22.803Z,27.58
2018-08-18T12:28:22.817Z,25.76
2018-08-18T12:29:30.959Z,25.91
2018-08-18T12:30:22.769Z,26.53
2018-08-18T12:31:22.745Z,26.61
2018-08-18T12:32:22.749Z,27.09
2018-08-18T12:33:22.768Z,26.40
2018-08-18T12:34:22.786Z,27.03
2018-08-18T12:35:22.729Z,28.15
2018-08-18T12:36:22.746Z,29.28
2018-08-18T12:37:22.748Z,31.13
2018-08-18T12:38:22.675Z,33.37
2018-08-18T12:39:22.718Z,32.00
2018-08-18T12:40:22.655Z,29.38
2018-08-18T12:41:22.654Z,29.37
2018-08-18T12:42:22.632Z,28.25
2018-08-18T12:43:22.659Z,27.92
2018-08-18T12:44:22.663Z,28.11
2018-08-18T12:45:22.654Z,27.73
2018-08-18T12:46:22.580Z,27.81
2018-08-18T12:47:22.697Z,27.62
2018-08-18T12:48:22.566Z,27.62
2018-08-18T12:49:22.576Z,27.61
2018-08-18T12:50:22.542Z,27.27
2018-08-18T12:51:22.548Z,26.88
2018-08-18T12:52:22.562Z,26.18
2018-08-18T12:53:22.510Z,26.06
2018-08-18T12:54:22.510Z,25.93
2018-08-18T12:55:22.551Z,24.96
2018-08-18T12:56:22.506Z,25.18
2018-08-18T12:57:22.502Z,25.99
2018-08-18T12:58:22.581Z,27.40
2018-08-18T12:59:22.459Z,25.92